Time;durP1;ratioP1;P1;durP2;ratioP2;P2;SDS_P1;SDS_P2;PMS_P1;PMS_P2;Temp;Humidity;BMP_temperature;BMP_pressure;BME280_temperature;BME280_humidity;BME280_pressure;Samples;Min_cycle;Max_cycle;Signal;HPM_P1;HPM_P2
2023/10/21 00:00:37;;;;;;;4.70;3.10;;;;;;;12.90;100.00;98108.13;3614214;39;20090;-66
2023/10/21 00:03:05;;;;;;;4.18;3.10;;;;;;;12.88;100.00;98110.19;3615455;39;20118;-67
2023/10/21 00:05:31;;;;;;;3.78;2.78;;;;;;;12.88;100.00;98110.19;3616019;39;20047;-67
2023/10/21 00:07:57;;;;;;;9.07;3.35;;;;;;;12.75;100.00;98089.19;3617411;39;20074;-66
2023/10/21 00:10:22;;;;;;;7.72;3.10;;;;;;;12.88;100.00;98104.81;3613474;39;20050;-66
2023/10/21 00:12:48;;;;;;;4.63;3.22;;;;;;;12.89;100.00;98117.25;3610542;39;20061;-66
2023/10/21 00:15:14;;;;;;;6.13;3.30;;;;;;;12.81;100.00;98103.81;3613454;39;20266;-66
2023/10/21 00:17:40;;;;;;;7.93;3.50;;;;;;;12.90;100.00;98125.16;3615456;39;20079;-66
2023/10/21 00:20:06;;;;;;;8.32;2.97;;;;;;;12.76;100.00;98102.47;3613785;39;20047;-66
2023/10/21 00:22:33;;;;;;;7.00;3.40;;;;;;;12.93;100.00;98129.34;3615271;39;20042;-66
2023/10/21 00:25:00;;;;;;;8.70;4.60;;;;;;;12.93;100.00;98132.06;3619845;39;20054;-66
2023/10/21 00:27:26;;;;;;;8.30;3.92;;;;;;;12.95;100.00;98143.50;3609571;39;20062;-67
2023/10/21 00:29:53;;;;;;;7.47;3.28;;;;;;;12.95;100.00;98140.81;3616828;39;20399;-68
2023/10/21 00:32:19;;;;;;;4.93;3.30;;;;;;;12.98;100.00;98153.94;3614789;39;20062;-67
2023/10/21 00:34:45;;;;;;;3.67;3.00;;;;;;;12.95;100.00;98144.34;3617238;39;20050;-66
2023/10/21 00:37:10;;;;;;;4.10;3.20;;;;;;;12.92;100.00;98138.47;3615883;39;20039;-66
2023/10/21 00:39:37;;;;;;;7.05;3.33;;;;;;;12.67;100.00;98108.94;3615289;39;20445;-67
2023/10/21 00:42:05;;;;;;;6.78;3.70;;;;;;;12.92;100.00;98150.09;3614943;39;20050;-67
2023/10/21 00:44:32;;;;;;;6.47;3.63;;;;;;;12.87;100.00;98143.53;3617248;39;20366;-67
2023/10/21 00:46:59;;;;;;;5.15;3.58;;;;;;;12.78;100.00;98127.41;3607772;39;20155;-67
2023/10/21 00:49:28;;;;;;;4.22;3.08;;;;;;;12.92;100.00;98168.97;3614993;39;20155;-67
2023/10/21 00:51:56;;;;;;;7.47;3.95;;;;;;;12.84;100.00;98151.97;3617640;39;20084;-66
2023/10/21 00:54:25;;;;;;;6.18;3.22;;;;;;;12.89;100.00;98176.56;3615310;39;20342;-66
2023/10/21 00:56:51;;;;;;;6.70;3.55;;;;;;;12.89;100.00;98176.56;3615012;39;20308;-66
2023/10/21 00:59:18;;;;;;;6.78;3.25;;;;;;;12.89;100.00;98181.97;3616291;39;20050;-66
2023/10/21 01:01:44;;;;;;;5.20;3.47;;;;;;;12.88;100.00;98185.69;3619067;39;20095;-67
2023/10/21 01:04:13;;;;;;;5.95;3.53;;;;;;;12.87;100.00;98190.22;3617337;39;20081;-67
2023/10/21 01:06:39;;;;;;;6.18;3.63;;;;;;;12.69;100.00;98160.81;3616524;39;20047;-67
2023/10/21 01:09:06;;;;;;;7.97;3.60;;;;;;;12.87;100.00;98194.75;3618158;39;20069;-68
2023/10/21 01:11:34;;;;;;;4.40;3.63;;;;;;;12.78;100.00;98183.16;3615096;39;20406;-66
2023/10/21 01:14:00;;;;;;;4.60;3.33;;;;;;;12.86;100.00;98202.03;3607569;39;20075;-66
2023/10/21 01:16:28;;;;;;;4.78;3.80;;;;;;;12.87;100.00;98202.84;3618069;39;20127;-66
2023/10/21 01:18:54;;;;;;;8.52;3.90;;;;;;;12.88;100.00;98205.41;3619952;39;20293;-67
2023/10/21 01:21:20;;;;;;;5.10;3.30;;;;;;;12.88;100.00;98209.94;3618911;39;20085;-66
2023/10/21 01:23:46;;;;;;;4.80;3.33;;;;;;;12.89;100.00;98209.75;3617953;39;20054;-67
2023/10/21 01:26:12;;;;;;;8.55;4.15;;;;;;;12.81;100.00;98190.06;3614800;39;20051;-66
2023/10/21 01:28:37;;;;;;;7.85;4.20;;;;;;;12.82;100.00;98199.84;3614842;39;20374;-67
2023/10/21 01:31:04;;;;;;;5.70;3.80;;;;;;;12.94;100.00;98220.00;3617814;39;20058;-67
2023/10/21 01:33:30;;;;;;;6.63;3.80;;;;;;;12.95;100.00;98224.41;3611589;39;20062;-67
2023/10/21 01:35:55;;;;;;;9.38;3.90;;;;;;;12.96;100.00;98226.09;3617313;39;20563;-67
2023/10/21 01:38:21;;;;;;;4.68;4.22;;;;;;;12.96;100.00;98220.69;3614199;39;20043;-67
2023/10/21 01:40:49;;;;;;;6.18;3.88;;;;;;;12.97;100.00;98228.63;3607225;39;20043;-66
2023/10/21 01:43:15;;;;;;;8.10;3.83;;;;;;;12.99;100.00;98223.03;3615287;39;20051;-66
2023/10/21 01:45:40;;;;;;;4.88;3.60;;;;;;;13.01;100.00;98226.41;3606538;39;20057;-67
2023/10/21 01:48:08;;;;;;;4.25;3.60;;;;;;;12.91;100.00;98212.31;3611325;39;20054;-66
2023/10/21 01:50:34;;;;;;;8.32;4.10;;;;;;;13.05;100.00;98233.13;3607764;39;20417;-66
2023/10/21 01:53:00;;;;;;;7.00;4.07;;;;;;;13.08;100.00;98240.03;3616215;39;20108;-66
2023/10/21 01:55:26;;;;;;;6.63;4.03;;;;;;;13.08;100.00;98238.19;3619100;39;20066;-67
2023/10/21 01:57:52;;;;;;;11.88;4.30;;;;;;;13.09;100.00;98231.75;3616332;39;20050;-66
2023/10/21 02:00:21;;;;;;;6.55;3.80;;;;;;;12.95;100.00;98219.84;3606410;39;20057;-66
2023/10/21 02:02:54;;;;;;;6.53;3.50;;;;;;;13.09;100.00;98241.72;3607305;39;20270;-66
2023/10/21 02:05:22;;;;;;;7.05;3.60;;;;;;;13.08;100.00;98242.72;3614782;39;20050;-66
2023/10/21 02:07:49;;;;;;;5.00;3.38;;;;;;;13.12;100.00;98258.38;3615665;39;20055;-66
2023/10/21 02:10:17;;;;;;;7.13;3.70;;;;;;;13.12;100.00;98258.38;3614550;39;20058;-66
2023/10/21 02:12:43;;;;;;;5.97;3.35;;;;;;;12.92;100.00;98224.75;3614710;39;20053;-66
2023/10/21 02:15:17;;;;;;;4.85;3.40;;;;;;;13.12;100.00;98263.78;3617831;39;20058;-66
2023/10/21 02:17:47;;;;;;;7.68;3.90;;;;;;;13.12;100.00;98266.47;3606764;39;20047;-66
2023/10/21 02:20:14;;;;;;;6.70;3.58;;;;;;;13.12;100.00;98269.16;3614484;39;20394;-67
2023/10/21 02:22:41;;;;;;;5.03;3.45;;;;;;;13.11;100.00;98270.19;3614430;39;20440;-67
2023/10/21 02:25:12;;;;;;;5.80;3.30;;;;;;;13.06;100.00;98274.41;3614254;39;20059;-66
2023/10/21 02:27:39;;;;;;;6.40;3.70;;;;;;;12.87;100.00;98249.53;3615185;39;20370;-67
2023/10/21 02:30:10;;;;;;;6.20;3.58;;;;;;;12.94;100.00;98271.25;3617701;39;20097;-66
2023/10/21 02:32:37;;;;;;;6.85;3.65;;;;;;;13.08;100.00;98286.72;3616455;39;20087;-66
2023/10/21 02:35:04;;;;;;;6.68;3.70;;;;;;;13.04;100.00;98277.31;3609080;39;20031;-66
2023/10/21 02:37:30;;;;;;;5.07;3.22;;;;;;;13.11;100.00;98289.06;3614592;39;20368;-66
2023/10/21 02:39:55;;;;;;;6.22;3.35;;;;;;;13.09;100.00;98285.69;3606263;39;20063;-66
2023/10/21 02:42:21;;;;;;;6.00;3.47;;;;;;;13.08;100.00;98297.50;3617589;39;20069;-66
2023/10/21 02:44:51;;;;;;;5.28;3.70;;;;;;;13.07;100.00;98293.13;3617692;39;20050;-66
2023/10/21 02:47:17;;;;;;;4.03;3.42;;;;;;;12.99;100.00;98285.06;3616412;39;20413;-66
2023/10/21 02:49:43;;;;;;;9.07;3.97;;;;;;;13.05;100.00;98297.84;3610053;39;20066;-66
2023/10/21 02:52:08;;;;;;;7.30;3.75;;;;;;;12.90;100.00;98281.53;3616294;39;20058;-67
2023/10/21 02:54:34;;;;;;;5.43;3.95;;;;;;;13.03;100.00;98302.56;3616091;39;20053;-66
2023/10/21 02:57:03;;;;;;;5.82;3.80;;;;;;;12.60;100.00;98242.69;3619188;39;20117;-66
2023/10/21 02:59:28;;;;;;;5.25;3.40;;;;;;;13.00;100.00;98308.31;3615753;39;20112;-66
2023/10/21 03:01:54;;;;;;;5.05;3.45;;;;;;;12.98;100.00;98313.06;3615525;39;20054;-67
2023/10/21 03:04:19;;;;;;;8.00;3.67;;;;;;;12.96;100.00;98325.84;3616359;39;20050;-67
2023/10/21 03:06:45;;;;;;;7.65;3.70;;;;;;;12.95;100.00;98332.28;3617881;39;20246;-67
2023/10/21 03:09:10;;;;;;;5.72;3.85;;;;;;;12.94;100.00;98333.25;3605241;39;20108;-68
2023/10/21 03:11:36;;;;;;;5.28;3.40;;;;;;;12.93;100.00;98328.91;3616382;39;20047;-67
2023/10/21 03:14:02;;;;;;;7.90;3.78;;;;;;;12.93;100.00;98328.91;3614117;39;20066;-66
2023/10/21 03:16:27;;;;;;;4.65;3.75;;;;;;;12.82;100.00;98316.63;3615277;39;20047;-67
2023/10/21 03:18:53;;;;;;;7.13;3.38;;;;;;;12.81;100.00;98311.38;3615596;39;20050;-67
2023/10/21 03:21:19;;;;;;;5.75;3.50;;;;;;;12.89;100.00;98333.78;3614322;39;20051;-69
2023/10/21 03:23:44;;;;;;;6.28;3.92;;;;;;;12.89;100.00;98338.34;3614228;39;20053;-67
2023/10/21 03:26:11;;;;;;;6.78;3.30;;;;;;;12.88;100.00;98333.97;3614951;39;20057;-67
2023/10/21 03:28:38;;;;;;;6.03;3.13;;;;;;;12.88;100.00;98342.91;3604562;39;20051;-67
2023/10/21 03:31:05;;;;;;;8.05;3.70;;;;;;;12.86;100.00;98352.16;3613818;39;20058;-67
2023/10/21 03:33:32;;;;;;;3.63;3.33;;;;;;;12.87;100.00;98351.16;3614827;39;20096;-66
2023/10/21 03:36:01;;;;;;;5.47;3.38;;;;;;;12.85;100.00;98353.19;3617750;39;20042;-67
2023/10/21 03:38:27;;;;;;;4.10;3.22;;;;;;;12.86;100.00;98349.47;3614046;39;20357;-67
2023/10/21 03:41:08;;;;;;;6.22;3.80;;;;;;;12.84;100.00;98357.72;3616331;39;20062;-67
2023/10/21 03:43:35;;;;;;;5.13;3.53;;;;;;;12.87;100.00;98360.06;3604716;39;20258;-66
2023/10/21 03:46:08;;;;;;;9.00;3.47;;;;;;;12.85;100.00;98366.66;3613921;39;20051;-67
2023/10/21 03:48:35;;;;;;;7.28;3.78;;;;;;;12.87;100.00;98373.56;3614815;39;20035;-67
2023/10/21 03:51:05;;;;;;;4.35;3.45;;;;;;;12.77;100.00;98362.94;3614830;39;20047;-66
2023/10/21 03:53:33;;;;;;;7.90;3.50;;;;;;;12.87;100.00;98378.09;3604827;39;20043;-67
2023/10/21 03:56:00;;;;;;;5.50;3.33;;;;;;;12.91;100.00;98384.88;3614764;39;20042;-67
2023/10/21 03:58:26;;;;;;;5.88;3.10;;;;;;;12.91;100.00;98384.88;3599662;39;20054;-67
2023/10/21 04:00:52;;;;;;;7.28;3.45;;;;;;;12.94;100.00;98384.50;3615399;39;20135;-67
2023/10/21 04:03:19;;;;;;;7.03;3.03;;;;;;;12.93;100.00;98389.06;3615749;39;20108;-67
2023/10/21 04:05:45;;;;;;;4.45;2.80;;;;;;;13.01;100.00;98396.31;3618896;39;20050;-67
2023/10/21 04:08:11;;;;;;;7.15;3.05;;;;;;;13.02;100.00;98400.69;3617115;39;20305;-67
2023/10/21 04:10:36;;;;;;;9.95;3.38;;;;;;;13.05;100.00;98407.59;3615534;39;20047;-67
2023/10/21 04:13:03;;;;;;;8.23;2.92;;;;;;;12.96;100.00;98390.56;3616117;39;20053;-66
2023/10/21 04:15:31;;;;;;;8.20;2.85;;;;;;;12.87;100.00;98372.72;3616197;39;20051;-67
2023/10/21 04:17:58;;;;;;;5.25;2.80;;;;;;;13.14;100.00;98426.28;3609481;39;20039;-67
2023/10/21 04:20:23;;;;;;;6.05;2.72;;;;;;;13.17;100.00;98417.88;3615345;39;20073;-67
2023/10/21 04:22:49;;;;;;;5.40;2.85;;;;;;;13.20;100.00;98420.22;3616262;39;20055;-67
2023/10/21 04:25:16;;;;;;;4.63;2.70;;;;;;;13.23;100.00;98437.94;3615694;39;20054;-67
2023/10/21 04:27:42;;;;;;;4.13;2.58;;;;;;;13.24;100.00;98426.97;3610254;39;20047;-66
2023/10/21 04:30:08;;;;;;;5.63;2.72;;;;;;;13.27;100.00;98427.66;3614751;39;20412;-66
2023/10/21 04:32:34;;;;;;;5.45;2.70;;;;;;;13.29;100.00;98431.88;3614750;39;20102;-67
2023/10/21 04:35:00;;;;;;;5.00;2.72;;;;;;;13.28;100.00;98435.56;3615485;39;20287;-67
2023/10/21 04:37:26;;;;;;;5.65;2.92;;;;;;;13.27;100.00;98439.28;3615065;39;20568;-67
2023/10/21 04:39:53;;;;;;;5.20;2.70;;;;;;;13.31;100.00;98442.50;3614988;39;20050;-67
2023/10/21 04:42:19;;;;;;;7.60;3.10;;;;;;;13.32;100.00;98449.56;3614839;39;20087;-67
2023/10/21 04:44:44;;;;;;;7.65;2.85;;;;;;;13.31;100.00;98451.41;3615630;39;20046;-67
2023/10/21 04:47:11;;;;;;;4.55;3.15;;;;;;;13.17;100.00;98438.59;3614495;39;20061;-67
2023/10/21 04:49:36;;;;;;;4.93;3.20;;;;;;;13.31;100.00;98458.69;3616506;39;20112;-67
2023/10/21 04:52:04;;;;;;;10.48;2.85;;;;;;;13.29;100.00;98460.69;3615153;39;20470;-67
2023/10/21 04:54:29;;;;;;;7.88;3.42;;;;;;;13.28;100.00;98467.13;3615627;39;20051;-67
2023/10/21 04:56:55;;;;;;;6.85;3.30;;;;;;;13.07;100.00;98444.19;3612654;39;20050;-67
2023/10/21 04:59:20;;;;;;;7.53;3.17;;;;;;;13.27;100.00;98471.66;3615311;39;20074;-67
2023/10/21 05:01:46;;;;;;;9.70;3.72;;;;;;;13.24;100.00;98471.97;3615477;39;20059;-67
2023/10/21 05:04:12;;;;;;;6.60;3.45;;;;;;;13.23;100.00;98483.78;3614989;39;20046;-67
2023/10/21 05:06:37;;;;;;;7.80;3.15;;;;;;;13.12;100.00;98478.72;3617820;39;20488;-67
2023/10/21 05:09:03;;;;;;;8.88;3.30;;;;;;;13.17;100.00;98498.78;3614731;39;20292;-67
2023/10/21 05:11:30;;;;;;;5.50;3.35;;;;;;;13.15;100.00;98489.19;3614890;39;20055;-67
2023/10/21 05:13:56;;;;;;;5.90;3.08;;;;;;;13.05;100.00;98483.94;3614904;39;20074;-67
2023/10/21 05:16:22;;;;;;;7.80;3.17;;;;;;;13.07;100.00;98498.13;3617843;39;20051;-67
2023/10/21 05:18:48;;;;;;;7.53;3.17;;;;;;;12.94;100.00;98481.56;3616347;39;20055;-67
2023/10/21 05:21:15;;;;;;;7.15;3.00;;;;;;;12.95;100.00;98488.69;3603176;39;20043;-67
2023/10/21 05:23:40;;;;;;;7.95;3.60;;;;;;;13.02;100.00;98500.47;3614018;39;20047;-68
2023/10/21 05:26:06;;;;;;;8.40;3.20;;;;;;;12.95;100.00;98491.38;3618124;39;20215;-67
2023/10/21 05:28:32;;;;;;;10.00;3.08;;;;;;;13.00;100.00;98497.09;3621220;39;20118;-67
2023/10/21 05:31:01;;;;;;;3.75;2.92;;;;;;;13.08;100.00;98510.59;3616365;39;20039;-67
2023/10/21 05:33:27;;;;;;;5.63;2.88;;;;;;;13.13;100.00;98518.16;3614055;39;20058;-67
2023/10/21 05:35:57;;;;;;;11.05;3.10;;;;;;;13.14;100.00;98519.88;3617997;39;20050;-66
2023/10/21 05:38:24;;;;;;;7.00;2.95;;;;;;;13.18;100.00;98516.66;3618217;39;20062;-66
2023/10/21 05:40:50;;;;;;;6.97;2.88;;;;;;;13.22;100.00;98525.25;3622437;39;20086;-66
2023/10/21 05:43:15;;;;;;;7.75;3.47;;;;;;;13.20;100.00;98520.03;3609596;39;20046;-66
2023/10/21 05:45:41;;;;;;;9.82;3.20;;;;;;;13.34;100.00;98528.50;3619832;39;20050;-66
2023/10/21 05:48:09;;;;;;;7.90;3.05;;;;;;;13.38;100.00;98543.31;3615104;39;20152;-66
2023/10/21 05:50:34;;;;;;;4.68;2.83;;;;;;;13.42;100.00;98547.41;3614369;39;20047;-66
2023/10/21 05:53:00;;;;;;;7.55;3.03;;;;;;;13.47;100.00;98543.16;3614938;39;20046;-66
2023/10/21 05:55:26;;;;;;;4.78;2.63;;;;;;;13.53;100.00;98547.03;3618555;39;20062;-66
2023/10/21 05:57:51;;;;;;;4.35;2.72;;;;;;;13.57;100.00;98548.38;3614221;39;20046;-66
2023/10/21 06:00:17;;;;;;;8.32;2.90;;;;;;;13.62;100.00;98555.97;3617548;39;20054;-66
2023/10/21 06:02:43;;;;;;;6.63;2.75;;;;;;;13.64;100.00;98562.06;3614350;39;20259;-66
2023/10/21 06:05:08;;;;;;;6.53;2.88;;;;;;;13.67;100.00;98564.44;3612354;39;20061;-66
2023/10/21 06:07:34;;;;;;;6.38;3.05;;;;;;;13.69;100.00;98568.63;3609406;39;20062;-66
2023/10/21 06:10:00;;;;;;;5.70;2.72;;;;;;;13.74;100.00;98575.38;3611451;39;20258;-66
2023/10/21 06:12:25;;;;;;;6.40;3.03;;;;;;;13.77;100.00;98575.88;3615646;39;20420;-66
2023/10/21 06:14:53;;;;;;;5.55;2.72;;;;;;;13.80;100.00;98589.03;3621233;39;20159;-66
2023/10/21 06:17:19;;;;;;;6.68;2.88;;;;;;;13.84;100.00;98592.25;3614670;39;20063;-67
2023/10/21 06:19:44;;;;;;;6.97;2.65;;;;;;;13.83;100.00;98585.16;3620102;39;20385;-68
2023/10/21 06:22:12;;;;;;;5.82;2.60;;;;;;;13.88;100.00;98604.38;3618523;39;20057;-67
2023/10/21 06:24:41;;;;;;;8.32;2.90;;;;;;;13.90;100.00;98615.88;3615172;39;20049;-67
2023/10/21 06:27:09;;;;;;;9.70;3.10;;;;;;;13.91;100.00;98614.84;3603805;39;20053;-67
2023/10/21 06:29:35;;;;;;;6.45;3.20;;;;;;;13.90;100.00;98616.72;3617154;39;20305;-68
2023/10/21 06:32:04;;;;;;;6.63;2.80;;;;;;;13.91;100.00;98620.25;3613928;39;20051;-65
2023/10/21 06:34:30;;;;;;;6.35;3.10;;;;;;;13.77;100.00;98592.09;3614453;39;20043;-65
2023/10/21 06:36:55;;;;;;;7.18;2.83;;;;;;;13.99;100.00;98632.91;3615322;39;20094;-65
2023/10/21 06:39:21;;;;;;;6.40;2.80;;;;;;;14.02;100.00;98633.41;3615101;39;20058;-65
2023/10/21 06:41:47;;;;;;;5.53;2.42;;;;;;;14.04;100.00;98641.34;3618399;39;20073;-65
2023/10/21 06:44:16;;;;;;;7.50;2.47;;;;;;;14.03;100.00;98645.91;3617441;39;20050;-65
2023/10/21 06:46:42;;;;;;;5.07;2.33;;;;;;;14.09;100.00;98649.78;3622359;39;20049;-64
2023/10/21 06:49:09;;;;;;;4.25;2.17;;;;;;;14.11;100.00;98663.94;3618425;39;20086;-65
2023/10/21 06:51:36;;;;;;;4.80;2.28;;;;;;;14.08;100.00;98653.47;3620478;39;20065;-66
2023/10/21 06:54:05;;;;;;;8.30;4.15;;;;;;;14.15;100.00;98665.31;3618258;39;20051;-64
2023/10/21 06:56:32;;;;;;;14.82;6.57;;;;;;;14.17;100.00;98668.66;3622390;39;20055;-65
2023/10/21 06:58:57;;;;;;;5.28;2.65;;;;;;;14.05;100.00;98649.28;3607771;39;20031;-65
2023/10/21 07:01:23;;;;;;;4.80;2.22;;;;;;;14.20;100.00;98678.28;3618085;39;20067;-64
2023/10/21 07:03:49;;;;;;;5.72;2.08;;;;;;;14.22;100.00;98681.69;3616394;39;20087;-64
2023/10/21 07:06:20;;;;;;;5.20;1.92;;;;;;;14.19;100.00;98677.47;3616812;39;20411;-64
2023/10/21 07:08:46;;;;;;;5.07;1.80;;;;;;;14.25;100.00;98697.56;3613914;39;20051;-64
2023/10/21 07:11:13;;;;;;;3.53;1.80;;;;;;;14.27;100.00;98698.22;3615504;39;20485;-65
2023/10/21 07:13:39;;;;;;;3.47;1.70;;;;;;;14.29;100.00;98698.91;3614163;39;20470;-64
2023/10/21 07:16:10;;;;;;;3.95;1.90;;;;;;;14.24;100.00;98703.94;3613438;39;20051;-64
2023/10/21 07:18:36;;;;;;;2.42;1.50;;;;;;;14.25;100.00;98708.38;3614387;39;20385;-64
2023/10/21 07:21:04;;;;;;;3.33;1.70;;;;;;;14.25;100.00;98744.34;3613747;39;20062;-64
2023/10/21 07:23:33;;;;;;;3.53;1.38;;;;;;;14.25;100.00;98760.56;3615070;39;20409;-64
2023/10/21 07:25:58;;;;;;;1.95;0.82;;;;;;;14.22;100.00;98773.56;3615501;39;20433;-62
2023/10/21 07:28:25;;;;;;;1.45;0.52;;;;;;;14.09;100.00;98766.78;3614267;39;20047;-64
2023/10/21 07:30:52;;;;;;;1.88;0.60;;;;;;;14.08;100.00;98786.72;3605862;39;20358;-66
2023/10/21 07:33:21;;;;;;;0.85;0.68;;;;;;;14.02;100.00;98792.81;3614543;39;20059;-65
2023/10/21 07:35:51;;;;;;;3.78;0.80;;;;;;;14.04;99.95;98796.16;3622703;39;20050;-65
2023/10/21 07:38:17;;;;;;;0.88;0.65;;;;;;;13.83;100.00;98775.03;3618921;39;20320;-65
2023/10/21 07:40:43;;;;;;;3.10;0.73;;;;;;;13.92;100.00;98802.88;3616645;39;20297;-65
2023/10/21 07:43:09;;;;;;;0.93;0.63;;;;;;;13.99;99.17;98820.16;3614813;39;20054;-65
2023/10/21 07:45:35;;;;;;;3.13;0.60;;;;;;;13.98;99.24;98829.25;3609166;39;20051;-65
2023/10/21 07:48:02;;;;;;;1.20;0.77;;;;;;;13.88;99.45;98826.69;3617867;39;20058;-65
2023/10/21 07:50:28;;;;;;;1.02;0.80;;;;;;;14.07;97.61;98849.84;3610575;39;20046;-65
2023/10/21 07:52:54;;;;;;;1.52;0.65;;;;;;;14.09;97.07;98845.16;3616769;39;20046;-65
2023/10/21 07:55:19;;;;;;;1.60;0.80;;;;;;;14.11;95.76;98851.25;3617918;39;20069;-65
2023/10/21 07:57:45;;;;;;;1.45;0.93;;;;;;;14.11;95.97;98853.94;3617070;39;20125;-65
2023/10/21 08:00:13;;;;;;;2.47;0.85;;;;;;;14.08;96.23;98856.97;3621691;39;20055;-65
2023/10/21 08:02:40;;;;;;;1.50;1.10;;;;;;;14.11;96.73;98875.56;3621663;39;20314;-65
2023/10/21 08:05:07;;;;;;;1.40;0.45;;;;;;;14.15;96.51;98863.41;3615320;39;20112;-65
2023/10/21 08:07:34;;;;;;;0.50;0.47;;;;;;;14.10;95.82;98864.91;3606739;39;20055;-65
2023/10/21 08:09:59;;;;;;;0.65;0.30;;;;;;;14.25;95.62;98881.31;3615145;39;20072;-65
2023/10/21 08:12:25;;;;;;;1.77;0.77;;;;;;;14.29;96.29;98871.88;3615468;39;20053;-65
2023/10/21 08:14:51;;;;;;;3.22;0.90;;;;;;;14.36;95.54;98886.41;3615284;39;20046;-66
2023/10/21 08:17:17;;;;;;;1.42;0.40;;;;;;;14.51;95.23;98886.63;3617276;39;20169;-65
2023/10/21 08:19:43;;;;;;;1.05;0.70;;;;;;;14.66;93.99;98884.09;3608465;39;20371;-65
2023/10/21 08:22:10;;;;;;;3.70;2.97;;;;;;;14.66;93.32;98859.75;3620879;39;20050;-65
2023/10/21 08:24:36;;;;;;;1.52;0.70;;;;;;;15.06;90.90;98900.31;3620067;39;20339;-65
2023/10/21 08:27:04;;;;;;;1.60;0.47;;;;;;;15.11;88.60;98902.50;3614788;39;20066;-66
2023/10/21 08:29:30;;;;;;;2.00;0.47;;;;;;;15.22;87.96;98898.56;3615743;39;20466;-66
2023/10/21 08:31:55;;;;;;;0.93;0.40;;;;;;;15.35;85.65;98900.75;3621227;39;20046;-65
2023/10/21 08:34:22;;;;;;;2.17;0.60;;;;;;;15.49;84.13;98909.00;3616050;39;20065;-65
2023/10/21 08:36:48;;;;;;;3.10;0.50;;;;;;;15.57;83.03;98902.72;3615326;39;20344;-65
2023/10/21 08:39:14;;;;;;;1.17;0.40;;;;;;;15.53;82.42;98913.06;3615070;39;20293;-65
2023/10/21 08:41:40;;;;;;;2.60;0.60;;;;;;;15.47;80.41;98919.16;3616465;39;20050;-66
2023/10/21 08:44:08;;;;;;;0.82;0.43;;;;;;;15.45;81.69;98921.22;3615811;39;20298;-66
2023/10/21 08:46:35;;;;;;;1.33;0.57;;;;;;;15.29;80.70;98903.16;3619447;39;20066;-67
2023/10/21 08:49:03;;;;;;;2.58;0.47;;;;;;;15.40;79.97;98936.28;3614880;39;20143;-65
2023/10/21 08:51:30;;;;;;;1.67;1.35;;;;;;;15.39;80.20;98940.03;3617900;39;20069;-66
2023/10/21 08:54:04;;;;;;;0.93;0.57;;;;;;;14.98;80.49;98884.09;3617172;39;20078;-66
2023/10/21 08:56:34;;;;;;;0.57;0.43;;;;;;;15.34;79.65;98937.81;3615408;39;20047;-65
2023/10/21 08:59:01;;;;;;;1.58;0.73;;;;;;;15.34;80.65;98937.81;3614881;39;20055;-65
2023/10/21 09:01:27;;;;;;;1.13;0.40;;;;;;;15.37;79.78;98947.47;3614998;39;20115;-65
2023/10/21 09:03:54;;;;;;;3.50;0.60;;;;;;;15.36;79.84;98952.03;3615040;39;20047;-66
2023/10/21 09:06:19;;;;;;;0.98;0.40;;;;;;;15.36;78.71;98960.16;3614922;39;20062;-65
2023/10/21 09:08:47;;;;;;;1.58;0.65;;;;;;;15.44;80.58;98962.84;3615442;39;20059;-66
2023/10/21 09:11:20;;;;;;;2.00;0.90;;;;;;;15.64;79.51;98967.91;3615866;39;20123;-66
2023/10/21 09:13:48;;;;;;;1.63;0.73;;;;;;;15.75;76.89;98972.97;3610234;39;20065;-66
2023/10/21 09:16:21;;;;;;;3.72;0.75;;;;;;;15.81;76.94;98939.75;3606434;39;20090;-66
2023/10/21 09:19:07;;;;;;;3.15;1.00;;;;;;;16.17;73.83;98978.06;3615531;39;20063;-64
2023/10/21 09:21:41;;;;;;;1.95;0.57;;;;;;;16.22;73.05;98980.25;3610361;39;20148;-65
2023/10/21 09:24:10;;;;;;;2.38;0.80;;;;;;;16.28;73.14;98989.56;3615600;39;20139;-65
2023/10/21 09:26:39;;;;;;;2.97;0.70;;;;;;;16.23;71.76;98990.91;3618311;39;20055;-65
2023/10/21 09:29:12;;;;;;;1.60;0.63;;;;;;;16.11;72.89;98992.34;3618003;39;20059;-65
2023/10/21 09:32:07;;;;;;;1.77;0.70;;;;;;;15.97;73.15;98993.91;3620592;39;20055;-65
2023/10/21 09:34:33;;;;;;;3.17;0.57;;;;;;;16.01;72.03;98994.38;3611870;39;20473;-65
2023/10/21 09:37:06;;;;;;;2.47;0.80;;;;;;;16.00;71.95;98992.69;3610321;39;20061;-65
2023/10/21 09:39:43;;;;;;;2.72;0.90;;;;;;;15.94;72.24;99004.25;3619400;39;20119;-66
2023/10/21 09:42:09;;;;;;;2.83;0.70;;;;;;;15.97;71.85;99010.16;3620732;39;20047;-65
2023/10/21 09:44:35;;;;;;;4.95;0.90;;;;;;;15.93;72.24;99010.69;3616227;39;20062;-65
2023/10/21 09:47:05;;;;;;;1.92;0.70;;;;;;;15.93;72.84;98999.84;3618478;39;20054;-65
2023/10/21 09:49:38;;;;;;;2.88;0.77;;;;;;;15.86;71.57;99005.13;3616734;39;20050;-65
2023/10/21 09:52:10;;;;;;;3.58;0.93;;;;;;;15.90;71.24;99020.00;3614535;39;20104;-65
2023/10/21 09:54:56;;;;;;;3.22;0.75;;;;;;;15.87;70.90;99017.63;3614641;39;20081;-65
2023/10/21 09:57:22;;;;;;;2.17;0.77;;;;;;;15.87;70.40;99012.22;3614038;39;20058;-65
2023/10/21 09:59:48;;;;;;;4.18;0.95;;;;;;;15.96;71.07;99019.31;3605083;39;20116;-67
2023/10/21 10:02:15;;;;;;;4.50;2.80;;;;;;;16.13;68.94;99019.25;3614233;39;20050;-66
2023/10/21 10:04:42;;;;;;;3.88;1.10;;;;;;;16.19;68.66;99013.97;3616431;39;20351;-66
2023/10/21 10:07:09;;;;;;;2.53;1.48;;;;;;;16.29;70.25;99024.59;3614134;39;20047;-64
2023/10/21 10:09:38;;;;;;;6.47;1.38;;;;;;;16.48;68.58;99026.88;3616403;39;20047;-65
2023/10/21 10:12:31;;;;;;;6.55;0.90;;;;;;;16.71;66.64;99036.94;3618463;39;20053;-65
2023/10/21 10:14:56;;;;;;;4.25;1.00;;;;;;;16.82;65.51;99039.31;3618788;39;20043;-65
2023/10/21 10:17:49;;;;;;;4.30;0.93;;;;;;;16.86;64.99;99037.91;3615621;39;20454;-66
2023/10/21 10:20:23;;;;;;;2.17;0.73;;;;;;;17.04;64.78;99034.06;3614548;39;20047;-67
2023/10/21 10:23:07;;;;;;;1.50;0.82;;;;;;;17.21;64.43;99023.94;3621346;39;20087;-66
2023/10/21 10:25:39;;;;;;;4.40;0.82;;;;;;;17.49;61.79;99059.53;3618070;39;20378;-66
2023/10/21 10:28:10;;;;;;;2.42;0.90;;;;;;;17.66;61.44;99071.94;3615106;39;20051;-64
2023/10/21 10:30:43;;;;;;;2.88;1.10;;;;;;;17.83;59.38;99038.19;3616192;39;20124;-66
2023/10/21 10:33:13;;;;;;;2.22;1.13;;;;;;;17.91;61.02;99023.63;3614897;39;20047;-64
2023/10/21 10:35:47;;;;;;;7.03;1.00;;;;;;;18.20;59.61;99046.44;3614353;39;20058;-64
2023/10/21 10:38:26;;;;;;;4.15;1.10;;;;;;;18.29;58.21;99048.88;3614039;39;20107;-65
2023/10/21 10:41:16;;;;;;;3.08;1.02;;;;;;;18.18;58.43;99060.25;3619711;39;20039;-64
2023/10/21 10:44:01;;;;;;;4.78;1.33;;;;;;;17.89;58.85;99050.19;3617887;39;20051;-65
2023/10/21 10:46:30;;;;;;;5.10;1.27;;;;;;;17.94;60.24;99052.34;3614728;39;20043;-65
2023/10/21 10:49:05;;;;;;;3.85;1.10;;;;;;;18.04;58.46;99056.47;3614534;39;20058;-64
2023/10/21 10:51:43;;;;;;;5.80;2.85;;;;;;;18.04;59.28;99055.63;3618058;39;20050;-65
2023/10/21 10:54:14;;;;;;;4.85;1.88;;;;;;;18.38;58.95;99056.94;3616931;39;20269;-65
2023/10/21 10:56:50;;;;;;;6.20;2.00;;;;;;;18.29;56.55;99048.03;3615628;39;20046;-65
2023/10/21 10:59:17;;;;;;;8.80;1.45;;;;;;;18.38;57.69;99076.00;3604750;39;20401;-65
2023/10/21 11:01:45;;;;;;;9.13;1.23;;;;;;;18.56;56.91;99057.41;3614759;39;20043;-65
2023/10/21 11:04:10;;;;;;;5.05;1.13;;;;;;;18.84;56.68;99082.06;3617645;39;20046;-65
2023/10/21 11:06:42;;;;;;;4.97;1.42;;;;;;;18.55;55.69;99047.53;3617872;39;20058;-64
2023/10/21 11:09:16;;;;;;;4.80;1.60;;;;;;;18.71;54.58;99074.56;3614137;39;20120;-65
2023/10/21 11:11:54;;;;;;;3.95;1.10;;;;;;;18.37;54.34;99079.75;3614135;39;20108;-65
2023/10/21 11:14:20;;;;;;;5.75;1.20;;;;;;;17.95;54.70;99070.31;3606927;39;20131;-65
2023/10/21 11:16:50;;;;;;;4.45;1.20;;;;;;;17.74;57.07;99082.72;3615516;39;20101;-66
2023/10/21 11:19:17;;;;;;;4.57;1.55;;;;;;;17.82;57.66;99060.97;3605196;39;20147;-65
2023/10/21 11:21:48;;;;;;;4.63;1.50;;;;;;;17.94;57.63;99084.97;3617039;39;20049;-65
2023/10/21 11:24:14;;;;;;;6.45;2.30;;;;;;;18.16;57.69;99085.94;3614971;39;20144;-65
2023/10/21 11:26:41;;;;;;;6.22;1.30;;;;;;;17.89;57.24;99060.19;3603996;39;20080;-65
2023/10/21 11:29:08;;;;;;;3.25;1.10;;;;;;;17.94;58.47;99079.53;3614742;39;20390;-66